createdAt,value
2017-10-23T00:00:54.646Z,5.30
2017-10-23T00:03:22.370Z,5.77
2017-10-23T00:05:50.146Z,5.33
2017-10-23T00:08:18.114Z,5.70
2017-10-23T00:10:45.880Z,6.83
2017-10-23T00:13:13.644Z,7.20
2017-10-23T00:15:42.126Z,7.40
2017-10-23T00:18:09.994Z,7.00
2017-10-23T00:20:37.760Z,7.10
2017-10-23T00:23:05.524Z,7.70
2017-10-23T00:25:33.291Z,7.67
2017-10-23T00:28:01.038Z,7.23
2017-10-23T00:30:28.641Z,7.60
2017-10-23T00:32:56.483Z,7.77
2017-10-23T00:35:24.352Z,8.40
2017-10-23T00:37:52.219Z,8.63
2017-10-23T00:40:20.089Z,7.77
2017-10-23T00:42:47.955Z,8.60
2017-10-23T00:45:15.720Z,8.03
2017-10-23T00:47:44.259Z,8.67
2017-10-23T00:50:12.818Z,7.80
2017-10-23T00:52:40.541Z,8.23
2017-10-23T00:55:08.264Z,9.30
2017-10-23T00:57:36.084Z,9.10
2017-10-23T01:00:03.913Z,9.27
2017-10-23T01:02:32.392Z,8.33
2017-10-23T01:05:00.955Z,9.70
2017-10-23T01:07:28.679Z,9.50
2017-10-23T01:09:56.448Z,9.67
2017-10-23T01:12:24.319Z,10.10
2017-10-23T01:14:51.980Z,10.87
2017-10-23T01:17:19.814Z,10.63
2017-10-23T01:19:48.532Z,11.27
2017-10-23T01:22:16.333Z,11.50
2017-10-23T01:24:44.166Z,11.30
2017-10-23T01:27:12.019Z,11.47
2017-10-23T01:29:40.283Z,12.10
2017-10-23T01:32:08.387Z,12.30
2017-10-23T01:34:36.050Z,11.80
2017-10-23T01:37:04.635Z,11.93
2017-10-23T01:39:32.499Z,11.90
2017-10-23T01:42:00.367Z,11.60
2017-10-23T01:44:28.122Z,12.10
2017-10-23T01:46:55.898Z,12.60
2017-10-23T01:49:23.769Z,10.70
2017-10-23T01:51:51.750Z,12.73
2017-10-23T01:54:19.496Z,12.27
2017-10-23T01:56:47.336Z,12.00
2017-10-23T01:59:15.851Z,11.30
2017-10-23T02:01:43.627Z,11.90
2017-10-23T02:04:11.382Z,12.50
2017-10-23T02:06:39.181Z,12.00
2017-10-23T02:09:07.221Z,10.97
2017-10-23T02:11:34.995Z,11.40
2017-10-23T02:14:02.751Z,11.33
2017-10-23T02:16:30.673Z,11.73
2017-10-23T02:18:58.529Z,10.43
2017-10-23T02:21:27.176Z,11.13
2017-10-23T02:23:55.145Z,10.83
2017-10-23T02:26:22.911Z,10.33
2017-10-23T02:28:50.778Z,10.77
2017-10-23T02:31:18.647Z,10.70
2017-10-23T02:33:46.410Z,9.70
2017-10-23T02:36:14.176Z,10.70
2017-10-23T02:38:42.814Z,9.80
2017-10-23T02:41:11.347Z,10.23
2017-10-23T02:43:39.103Z,10.23
2017-10-23T02:46:06.877Z,9.00
2017-10-23T02:48:34.546Z,10.10
2017-10-23T02:51:02.313Z,9.30
2017-10-23T02:53:29.989Z,10.03
2017-10-23T02:55:57.715Z,10.40
2017-10-23T02:58:25.601Z,10.00
2017-10-23T03:00:54.844Z,9.40
2017-10-23T03:03:22.580Z,9.90
2017-10-23T03:05:51.129Z,9.60
2017-10-23T03:08:18.915Z,9.83
2017-10-23T03:10:46.885Z,8.50
2017-10-23T03:13:14.858Z,9.93
2017-10-23T03:15:42.621Z,10.40
2017-10-23T03:18:10.489Z,10.27
2017-10-23T03:20:38.358Z,9.90
2017-10-23T03:23:06.148Z,10.83
2017-10-23T03:25:33.892Z,10.80
2017-10-23T03:28:01.756Z,10.40
2017-10-23T03:30:29.556Z,10.20
2017-10-23T03:32:57.330Z,11.50
2017-10-23T03:35:25.873Z,10.83
2017-10-23T03:37:53.739Z,12.40
2017-10-23T03:40:21.527Z,10.67
2017-10-23T03:42:49.482Z,10.50
2017-10-23T03:45:17.239Z,10.80
2017-10-23T03:47:45.775Z,10.17
2017-10-23T03:50:13.590Z,10.73
2017-10-23T03:52:41.371Z,10.40
2017-10-23T03:55:10.051Z,10.07
2017-10-23T03:57:39.038Z,10.47
2017-10-23T04:00:06.796Z,10.80
2017-10-23T04:02:34.875Z,11.10
2017-10-23T04:05:02.733Z,9.30
2017-10-23T04:07:30.721Z,10.00
2017-10-23T04:09:58.580Z,9.50
2017-10-23T04:12:26.561Z,10.63
2017-10-23T04:14:54.530Z,9.33
2017-10-23T04:17:22.567Z,9.20
2017-10-23T04:19:50.244Z,10.13
2017-10-23T04:22:18.135Z,9.33
2017-10-23T04:24:45.997Z,9.60
2017-10-23T04:27:13.771Z,8.53
2017-10-23T04:29:41.526Z,8.30
2017-10-23T04:32:10.111Z,8.37
2017-10-23T04:34:38.080Z,8.57
2017-10-23T04:37:05.946Z,8.90
2017-10-23T04:39:33.712Z,8.37
2017-10-23T04:42:01.580Z,8.30
2017-10-23T04:44:30.054Z,8.27
2017-10-23T04:46:57.931Z,8.77
2017-10-23T04:49:25.899Z,8.40
2017-10-23T04:51:53.580Z,8.67
2017-10-23T04:54:21.438Z,8.97
2017-10-23T04:56:49.299Z,9.10
2017-10-23T04:59:17.269Z,9.10
2017-10-23T05:01:45.016Z,8.23
2017-10-23T05:04:12.611Z,9.70
2017-10-23T05:06:40.361Z,9.03
2017-10-23T05:09:08.179Z,9.50
2017-10-23T05:11:36.711Z,9.53
2017-10-23T05:14:04.464Z,9.30
2017-10-23T05:16:32.183Z,8.23
2017-10-23T05:19:00.007Z,9.20
2017-10-23T05:21:27.776Z,8.83
2017-10-23T05:23:56.356Z,8.97
2017-10-23T05:26:24.226Z,9.27
2017-10-23T05:28:51.997Z,9.37
2017-10-23T05:31:19.762Z,9.83
2017-10-23T05:33:47.726Z,9.03
2017-10-23T05:36:15.593Z,10.00
2017-10-23T05:38:43.462Z,9.83
2017-10-23T05:41:11.210Z,10.30
2017-10-23T05:43:39.096Z,9.73
2017-10-23T05:46:06.900Z,10.60
2017-10-23T05:48:35.061Z,9.73
2017-10-23T05:51:02.904Z,9.60
2017-10-23T05:53:30.663Z,10.90
2017-10-23T05:55:58.748Z,9.70
2017-10-23T05:58:26.613Z,10.27
2017-10-23T06:00:55.322Z,10.67
2017-10-23T06:03:23.881Z,11.23
2017-10-23T06:05:51.751Z,11.63
2017-10-23T06:08:19.639Z,11.40
2017-10-23T06:10:47.361Z,11.77
2017-10-23T06:13:15.086Z,11.30
2017-10-23T06:15:43.019Z,10.90
2017-10-23T06:18:10.990Z,12.57
2017-10-23T06:20:38.854Z,12.80
2017-10-23T06:23:06.619Z,11.33
2017-10-23T06:25:34.488Z,12.63
2017-10-23T06:28:02.261Z,12.00
2017-10-23T06:30:30.018Z,13.60
2017-10-23T06:32:57.988Z,14.20
2017-10-23T06:35:25.787Z,12.33
2017-10-23T06:37:53.515Z,13.70
2017-10-23T06:40:21.235Z,13.13
2017-10-23T06:42:49.151Z,12.30
2017-10-23T06:45:17.122Z,12.70
2017-10-23T06:47:44.990Z,11.93
2017-10-23T06:50:12.756Z,13.07
2017-10-23T06:52:41.305Z,13.53
2017-10-23T06:55:09.208Z,12.97
2017-10-23T06:57:36.972Z,12.73
2017-10-23T07:00:04.742Z,11.83
2017-10-23T07:02:32.657Z,12.57
2017-10-23T07:05:01.192Z,13.60
2017-10-23T07:07:28.944Z,11.53
2017-10-23T07:09:56.555Z,12.90
2017-10-23T07:12:24.269Z,12.17
2017-10-23T07:14:52.050Z,11.60
2017-10-23T07:17:20.075Z,11.43
2017-10-23T07:19:48.603Z,13.17
2017-10-23T07:22:16.477Z,11.43
2017-10-23T07:24:44.321Z,11.20
2017-10-23T07:27:12.513Z,10.57
2017-10-23T07:29:40.692Z,12.90
2017-10-23T07:32:08.563Z,11.67
2017-10-23T07:34:36.323Z,10.30
2017-10-23T07:37:04.190Z,10.90
2017-10-23T07:39:32.059Z,11.80
2017-10-23T07:41:59.960Z,11.13
2017-10-23T07:44:27.795Z,10.57
2017-10-23T07:46:55.560Z,11.23
2017-10-23T07:49:23.367Z,11.43
2017-10-23T07:51:51.070Z,10.83
2017-10-23T07:54:18.855Z,10.87
2017-10-23T07:56:46.516Z,10.93
2017-10-23T07:59:14.283Z,10.03
2017-10-23T08:01:42.151Z,12.13
2017-10-23T08:04:09.815Z,11.33
2017-10-23T08:06:37.530Z,12.00
2017-10-23T08:09:05.347Z,11.70
2017-10-23T08:11:33.105Z,12.53
2017-10-23T08:14:01.798Z,11.93
2017-10-23T08:16:29.500Z,12.20
2017-10-23T08:18:57.431Z,11.57
2017-10-23T08:21:25.183Z,10.37
2017-10-23T08:23:52.962Z,11.17
2017-10-23T08:26:20.834Z,10.20
2017-10-23T08:28:48.807Z,11.03
2017-10-23T08:31:16.559Z,11.07
2017-10-23T08:33:44.336Z,10.63
2017-10-23T08:36:12.119Z,10.90
2017-10-23T08:38:39.838Z,11.30
2017-10-23T08:41:08.524Z,11.37
2017-10-23T08:43:37.134Z,10.63
2017-10-23T08:46:05.104Z,9.57
2017-10-23T08:48:32.972Z,10.20
2017-10-23T08:51:00.856Z,10.73
2017-10-23T08:53:28.707Z,9.33
2017-10-23T08:55:56.472Z,9.30
2017-10-23T08:58:24.263Z,10.47
2017-10-23T09:00:52.105Z,10.20
2017-10-23T09:03:19.974Z,9.17
2017-10-23T09:05:47.841Z,10.50
2017-10-23T09:08:15.709Z,9.10
2017-10-23T09:10:43.577Z,8.70
2017-10-23T09:13:11.344Z,8.40
2017-10-23T09:15:39.159Z,9.03
2017-10-23T09:18:07.081Z,9.07
2017-10-23T09:20:34.946Z,8.87
2017-10-23T09:23:02.712Z,9.97
2017-10-23T09:25:30.529Z,8.07
2017-10-23T09:27:58.344Z,8.30
2017-10-23T09:30:26.099Z,7.70
2017-10-23T09:32:53.818Z,8.17
2017-10-23T09:35:21.700Z,7.40
2017-10-23T09:37:49.406Z,8.13
2017-10-23T09:40:17.224Z,7.60
2017-10-23T09:42:46.576Z,8.23
2017-10-23T09:45:14.352Z,7.83
2017-10-23T09:47:42.105Z,8.70
2017-10-23T09:50:10.695Z,7.10
2017-10-23T09:52:38.560Z,7.77
2017-10-23T09:55:06.328Z,7.60
2017-10-23T09:57:34.043Z,7.57
2017-10-23T10:00:02.783Z,7.47
2017-10-23T10:02:30.750Z,7.80
2017-10-23T10:04:58.624Z,7.67
2017-10-23T10:07:26.483Z,7.63
2017-10-23T10:09:54.252Z,8.40
2017-10-23T10:12:22.833Z,8.20
2017-10-23T10:14:50.708Z,8.73
2017-10-23T10:17:18.364Z,8.40
2017-10-23T10:19:46.130Z,8.20
2017-10-23T10:22:13.998Z,8.70
2017-10-23T10:24:41.764Z,8.90
2017-10-23T10:27:09.631Z,7.40
2017-10-23T10:29:38.216Z,8.07
2017-10-23T10:32:06.083Z,7.60
2017-10-23T10:34:33.951Z,7.60
2017-10-23T10:37:01.717Z,8.17
2017-10-23T10:39:30.300Z,7.67
2017-10-23T10:41:58.170Z,7.00
2017-10-23T10:44:26.037Z,7.87
2017-10-23T10:46:53.804Z,6.63
2017-10-23T10:49:21.771Z,6.57
2017-10-23T10:51:50.358Z,6.73
2017-10-23T10:54:18.327Z,7.60
2017-10-23T10:56:46.196Z,6.60
2017-10-23T10:59:13.949Z,7.57
2017-10-23T11:01:41.673Z,6.90
2017-10-23T11:04:10.954Z,7.60
2017-10-23T11:06:38.689Z,7.00
2017-10-23T11:09:06.456Z,6.90
2017-10-23T11:11:34.324Z,6.00
2017-10-23T11:14:02.204Z,7.07
2017-10-23T11:16:29.967Z,7.27
2017-10-23T11:18:57.825Z,7.20
2017-10-23T11:21:25.704Z,6.77
2017-10-23T11:23:53.561Z,7.73
2017-10-23T11:26:21.327Z,7.50
2017-10-23T11:28:49.195Z,6.73
2017-10-23T11:31:17.062Z,6.77
2017-10-23T11:33:44.931Z,7.50
2017-10-23T11:36:12.695Z,7.40
2017-10-23T11:38:41.998Z,6.80
2017-10-23T11:41:09.762Z,6.90
2017-10-23T11:43:37.637Z,6.40
2017-10-23T11:46:05.484Z,6.80
2017-10-23T11:48:33.263Z,6.70
2017-10-23T11:51:01.139Z,7.03
2017-10-23T11:53:28.897Z,6.20
2017-10-23T11:55:57.584Z,6.00
2017-10-23T11:58:25.350Z,6.67
2017-10-23T12:00:53.217Z,7.00
2017-10-23T12:03:21.114Z,6.07
2017-10-23T12:05:48.761Z,6.33
2017-10-23T12:08:16.719Z,6.10
2017-10-23T12:10:44.628Z,7.37
2017-10-23T12:13:12.379Z,5.60
2017-10-23T12:15:41.036Z,5.47
2017-10-23T12:18:08.915Z,5.87
2017-10-23T12:20:37.437Z,5.60
2017-10-23T12:23:05.257Z,5.03
2017-10-23T12:25:33.002Z,4.93
2017-10-23T12:28:00.789Z,4.73
2017-10-23T12:30:28.655Z,5.30
2017-10-23T12:32:56.422Z,5.13
2017-10-23T12:35:24.289Z,4.60
2017-10-23T12:37:53.595Z,5.37
2017-10-23T12:40:21.673Z,5.60
2017-10-23T12:42:49.340Z,4.53
2017-10-23T12:45:17.097Z,5.07
2017-10-23T12:47:45.145Z,4.80
2017-10-23T12:50:13.590Z,5.30
2017-10-23T12:52:41.421Z,5.60
2017-10-23T12:55:09.382Z,5.30
2017-10-23T12:57:37.148Z,5.30
2017-10-23T13:00:05.733Z,6.00
2017-10-23T13:02:33.706Z,6.70
2017-10-23T13:05:01.604Z,6.13
2017-10-23T13:07:29.329Z,6.00
2017-10-23T13:09:57.104Z,6.00
2017-10-23T13:12:25.012Z,6.87
2017-10-23T13:14:52.837Z,6.10
2017-10-23T13:17:20.603Z,5.93
2017-10-23T13:19:49.289Z,5.67
2017-10-23T13:22:17.102Z,5.80
2017-10-23T13:24:44.922Z,6.30
2017-10-23T13:27:12.676Z,6.10
2017-10-23T13:29:40.454Z,5.00
2017-10-23T13:32:08.238Z,6.30
2017-10-23T13:34:35.987Z,5.27
2017-10-23T13:37:03.798Z,6.53
2017-10-23T13:39:31.521Z,5.60
2017-10-23T13:41:59.587Z,5.90
2017-10-23T13:44:27.472Z,5.37
2017-10-23T13:46:56.007Z,6.00
2017-10-23T13:49:24.523Z,6.10
2017-10-23T13:51:52.415Z,5.70
2017-10-23T13:54:20.146Z,5.60
2017-10-23T13:56:58.366Z,5.47
2017-10-23T13:59:26.142Z,5.80
2017-10-23T14:01:53.898Z,5.77
2017-10-23T14:04:22.482Z,5.77
2017-10-23T14:06:50.452Z,6.10
2017-10-23T14:09:18.217Z,5.73
2017-10-23T14:11:45.983Z,5.50
2017-10-23T14:14:13.853Z,5.87
2017-10-23T14:16:41.721Z,5.13
2017-10-23T14:19:09.691Z,5.30
2017-10-23T14:21:37.557Z,4.83
2017-10-23T14:24:05.430Z,4.97
2017-10-23T14:26:34.105Z,4.93
2017-10-23T14:29:01.878Z,4.87
2017-10-23T14:31:29.750Z,5.03
2017-10-23T14:33:57.502Z,4.93
2017-10-23T14:36:25.101Z,5.00
2017-10-23T14:41:44.555Z,6.77
2017-10-23T14:44:12.432Z,5.33
2017-10-23T14:46:40.240Z,5.37
2017-10-23T14:49:08.169Z,4.73
2017-10-23T14:51:35.933Z,4.70
2017-10-23T14:54:03.699Z,5.27
2017-10-23T14:56:31.567Z,5.00
2017-10-23T14:58:59.447Z,5.10
2017-10-23T15:01:27.200Z,4.90
2017-10-23T15:03:55.169Z,4.70
2017-10-23T15:06:22.974Z,4.50
2017-10-23T15:08:50.818Z,5.30
2017-10-23T15:11:18.672Z,5.07
2017-10-23T15:13:46.395Z,5.40
2017-10-23T15:16:14.305Z,5.40
2017-10-23T15:18:42.276Z,5.20
2017-10-23T15:21:10.350Z,5.13
2017-10-23T15:23:38.215Z,4.97
2017-10-23T15:26:06.438Z,5.77
2017-10-23T15:28:34.262Z,5.60
2017-10-23T15:31:02.027Z,5.70
2017-10-23T15:33:30.561Z,6.20
2017-10-23T15:35:58.390Z,5.97
2017-10-23T15:38:26.350Z,6.13
2017-10-23T15:40:54.093Z,6.87
2017-10-23T15:43:21.894Z,6.23
2017-10-23T15:45:49.749Z,6.60
2017-10-23T15:48:17.713Z,6.43
2017-10-23T15:50:45.460Z,7.63
2017-10-23T15:53:13.244Z,8.07
2017-10-23T15:55:41.112Z,7.50
2017-10-23T15:58:09.089Z,9.20
2017-10-23T16:00:36.843Z,8.40
2017-10-23T16:03:04.555Z,8.57
2017-10-23T16:05:32.287Z,7.90
2017-10-23T16:08:00.148Z,8.30
2017-10-23T16:10:27.963Z,8.50
2017-10-23T16:12:55.779Z,7.90
2017-10-23T16:15:23.541Z,7.80
2017-10-23T16:17:51.308Z,7.33
2017-10-23T16:20:19.178Z,7.67
2017-10-23T16:22:47.044Z,8.13
2017-10-23T16:25:14.809Z,7.93
2017-10-23T16:27:42.635Z,8.00
2017-10-23T16:30:11.262Z,8.10
2017-10-23T16:32:39.265Z,8.00
2017-10-23T16:35:07.202Z,11.20
2017-10-23T16:37:34.952Z,9.53
2017-10-23T16:40:02.740Z,8.43
2017-10-23T16:42:30.518Z,8.27
2017-10-23T16:44:58.267Z,8.10
2017-10-23T16:47:26.036Z,7.83
2017-10-23T16:49:53.804Z,8.67
2017-10-23T16:52:21.567Z,8.40
2017-10-23T16:54:49.432Z,8.70
2017-10-23T16:57:17.196Z,9.27
2017-10-23T16:59:44.959Z,9.00
2017-10-23T17:02:13.544Z,9.40
2017-10-23T17:04:41.340Z,8.43
2017-10-23T17:07:09.075Z,9.33
2017-10-23T17:09:36.865Z,9.77
2017-10-23T17:12:14.590Z,9.73
2017-10-23T17:14:42.413Z,9.30
2017-10-23T17:17:10.157Z,9.57
2017-10-23T17:19:37.939Z,10.03
2017-10-23T17:22:05.806Z,9.27
2017-10-23T17:24:33.776Z,8.90
2017-10-23T17:27:01.441Z,8.30
2017-10-23T17:29:30.026Z,9.23
2017-10-23T17:31:57.891Z,9.20
2017-10-23T17:34:25.759Z,9.47
2017-10-23T17:36:53.527Z,8.40
2017-10-23T17:39:32.577Z,8.70
2017-10-23T17:42:00.424Z,8.53
2017-10-23T17:44:28.393Z,8.30
2017-10-23T17:46:56.144Z,8.93
2017-10-23T17:49:23.925Z,8.60
2017-10-23T17:51:51.799Z,8.07
2017-10-23T17:54:19.555Z,9.23
2017-10-23T17:56:47.322Z,9.40
2017-10-23T17:59:15.190Z,8.70
2017-10-23T18:01:42.961Z,8.90
2017-10-23T18:04:11.029Z,9.40
2017-10-23T18:06:38.896Z,9.13
2017-10-23T18:09:06.732Z,8.80
2017-10-23T18:11:35.349Z,8.43
2017-10-23T18:14:03.137Z,10.00
2017-10-23T18:16:30.879Z,9.20
2017-10-23T18:18:58.852Z,8.27
2017-10-23T18:21:27.439Z,8.70
2017-10-23T18:23:55.307Z,8.97
2017-10-23T18:26:22.946Z,8.53
2017-10-23T18:28:50.844Z,8.20
2017-10-23T18:31:18.779Z,8.07
2017-10-23T18:33:46.681Z,7.70
2017-10-23T18:36:14.550Z,7.47
2017-10-23T18:38:42.305Z,7.00
2017-10-23T18:41:10.891Z,7.10
2017-10-23T18:43:38.760Z,5.97
2017-10-23T18:46:06.625Z,6.13
2017-10-23T18:48:34.595Z,4.90
2017-10-23T18:51:02.365Z,5.30
2017-10-23T18:53:30.899Z,4.73
2017-10-23T18:55:59.192Z,5.27
2017-10-23T18:58:26.945Z,5.30
2017-10-23T19:00:55.573Z,4.43
2017-10-23T19:03:23.442Z,5.70
2017-10-23T19:05:51.209Z,5.53
2017-10-23T19:08:19.082Z,5.70
2017-10-23T19:10:47.049Z,5.77
2017-10-23T19:13:14.915Z,5.10
2017-10-23T19:15:42.579Z,5.57
2017-10-23T19:18:10.352Z,5.53
2017-10-23T19:20:38.212Z,6.13
2017-10-23T19:23:06.077Z,6.17
2017-10-23T19:25:33.931Z,6.23
2017-10-23T19:28:01.916Z,5.20
2017-10-23T19:30:30.698Z,5.57
2017-10-23T19:32:58.483Z,5.07
2017-10-23T19:35:26.339Z,6.10
2017-10-23T19:37:54.309Z,5.83
2017-10-23T19:40:22.176Z,5.97
2017-10-23T19:42:50.046Z,5.87
2017-10-23T19:45:17.996Z,6.63
2017-10-23T19:47:45.719Z,5.70
2017-10-23T19:50:13.657Z,5.10
2017-10-23T19:52:41.619Z,7.20
2017-10-23T19:55:09.368Z,6.30
2017-10-23T19:57:37.251Z,7.10
2017-10-23T20:00:05.054Z,6.87
2017-10-23T20:02:33.192Z,6.10
2017-10-23T20:05:01.059Z,6.17
2017-10-23T20:07:29.034Z,6.27
2017-10-23T20:09:56.999Z,7.20
2017-10-23T20:12:24.765Z,6.20
2017-10-23T20:14:54.023Z,6.70
2017-10-23T20:17:22.651Z,6.73
2017-10-23T20:19:50.548Z,6.57
2017-10-23T20:22:18.394Z,6.40
2017-10-23T20:24:46.459Z,6.50
2017-10-23T20:27:14.322Z,7.00
2017-10-23T20:29:42.207Z,7.13
2017-10-23T20:32:10.003Z,7.00
2017-10-23T20:34:37.844Z,6.67
2017-10-23T20:37:05.597Z,7.07
2017-10-23T20:39:33.408Z,6.27
2017-10-23T20:42:01.330Z,7.87
2017-10-23T20:44:29.299Z,7.00
2017-10-23T20:46:57.271Z,5.90
2017-10-23T20:49:25.958Z,6.50
2017-10-23T20:51:53.705Z,7.63
2017-10-23T20:54:22.269Z,6.77
2017-10-23T20:56:50.998Z,7.00
2017-10-23T20:59:18.790Z,6.63
2017-10-23T21:01:46.633Z,5.93
2017-10-23T21:04:14.405Z,6.13
2017-10-23T21:06:42.267Z,5.47
2017-10-23T21:09:10.134Z,6.00
2017-10-23T21:11:37.906Z,5.67
2017-10-23T21:14:06.482Z,6.37
2017-10-23T21:16:34.890Z,5.30
2017-10-23T21:19:02.624Z,5.70
2017-10-23T21:21:30.700Z,6.30
2017-10-23T21:23:58.781Z,6.23
2017-10-23T21:26:26.641Z,6.57
2017-10-23T21:28:54.404Z,5.63
2017-10-23T21:31:22.271Z,5.77
2017-10-23T21:33:49.949Z,5.40
2017-10-23T21:36:17.802Z,5.97
2017-10-23T21:38:45.599Z,5.43
2017-10-23T21:41:13.541Z,6.43
2017-10-23T21:43:41.306Z,5.60
2017-10-23T21:46:09.121Z,6.90
2017-10-23T21:48:36.939Z,5.80
2017-10-23T21:51:04.888Z,5.80
2017-10-23T21:53:32.655Z,6.20
2017-10-23T21:56:00.543Z,5.60
2017-10-23T21:58:28.510Z,6.37
2017-10-23T22:00:56.481Z,6.50
2017-10-23T22:03:24.349Z,5.77
2017-10-23T22:05:52.011Z,5.80
2017-10-23T22:08:19.881Z,5.93
2017-10-23T22:10:47.547Z,5.90
2017-10-23T22:13:15.392Z,5.20
2017-10-23T22:15:43.177Z,5.00
2017-10-23T22:18:11.044Z,5.60
2017-10-23T22:20:39.017Z,5.20
2017-10-23T22:23:06.759Z,4.97
2017-10-23T22:25:35.363Z,5.40
2017-10-23T22:28:03.233Z,5.30
2017-10-23T22:30:31.102Z,5.87
2017-10-23T22:32:59.075Z,5.50
2017-10-23T22:35:26.813Z,4.97
2017-10-23T22:37:54.601Z,5.63
2017-10-23T22:40:22.382Z,5.17
2017-10-23T22:42:50.241Z,4.60
2017-10-23T22:45:18.717Z,4.57
2017-10-23T22:47:46.630Z,5.07
2017-10-23T22:50:14.556Z,4.30
2017-10-23T22:52:42.534Z,4.63
2017-10-23T22:55:10.496Z,4.60
2017-10-23T22:57:38.266Z,5.30
2017-10-23T23:00:06.960Z,5.30
2017-10-23T23:02:34.920Z,5.30
2017-10-23T23:05:03.504Z,4.93
2017-10-23T23:07:31.370Z,4.80
2017-10-23T23:09:59.259Z,4.57
2017-10-23T23:12:27.094Z,4.33
2017-10-23T23:14:54.872Z,5.30
2017-10-23T23:17:22.641Z,4.70
2017-10-23T23:19:50.509Z,5.00
2017-10-23T23:22:18.272Z,4.57
2017-10-23T23:24:46.226Z,4.50
2017-10-23T23:27:14.212Z,4.30
2017-10-23T23:29:42.051Z,4.03
2017-10-23T23:32:09.837Z,3.90
2017-10-23T23:34:37.565Z,3.40
2017-10-23T23:37:06.003Z,3.60
2017-10-23T23:39:33.757Z,4.03
2017-10-23T23:42:02.340Z,3.57
2017-10-23T23:44:30.271Z,4.03
2017-10-23T23:46:58.280Z,3.50
2017-10-23T23:49:26.150Z,3.40
2017-10-23T23:51:54.033Z,3.40
2017-10-23T23:54:21.783Z,3.30
2017-10-23T23:56:49.471Z,3.30
2017-10-23T23:59:17.216Z,3.40
